sensor_id;sensor_type;location;lat;lon;timestamp;temperature;humidity
11379;DHT22;5744;59.392;16.748;2022-12-07T04:58:07;-7.00;99.90
11379;DHT22;5744;59.392;16.748;2022-12-07T05:00:35;-7.00;99.90
11379;DHT22;5744;59.392;16.748;2022-12-07T05:03:04;-6.80;99.90
11379;DHT22;5744;59.392;16.748;2022-12-07T05:05:32;-6.70;99.90
11379;DHT22;5744;59.392;16.748;2022-12-07T05:08:01;-6.70;99.90
11379;DHT22;5744;59.392;16.748;2022-12-07T05:10:29;-6.60;99.90
11379;DHT22;5744;59.392;16.748;2022-12-07T05:12:58;-6.50;99.90
11379;DHT22;5744;59.392;16.748;2022-12-07T05:15:29;-6.50;99.90
11379;DHT22;5744;59.392;16.748;2022-12-07T05:17:57;-6.50;99.90
11379;DHT22;5744;59.392;16.748;2022-12-07T05:20:26;-6.40;99.90
11379;DHT22;5744;59.392;16.748;2022-12-07T05:22:54;-6.40;99.90
11379;DHT22;5744;59.392;16.748;2022-12-07T05:25:23;-6.30;99.90
11379;DHT22;5744;59.392;16.748;2022-12-07T05:27:52;-6.20;99.90
11379;DHT22;5744;59.392;16.748;2022-12-07T05:30:20;-6.10;99.90
11379;DHT22;5744;59.392;16.748;2022-12-07T05:32:51;-6.10;99.90
11379;DHT22;5744;59.392;16.748;2022-12-07T05:35:20;-6.10;99.90
11379;DHT22;5744;59.392;16.748;2022-12-07T05:37:48;-6.10;99.90
11379;DHT22;5744;59.392;16.748;2022-12-07T05:40:17;-6.10;99.90
11379;DHT22;5744;59.392;16.748;2022-12-07T05:42:46;-6.10;99.90
11379;DHT22;5744;59.392;16.748;2022-12-07T05:45:12;-6.10;99.90
11379;DHT22;5744;59.392;16.748;2022-12-07T05:47:41;-6.20;99.90
11379;DHT22;5744;59.392;16.748;2022-12-07T05:50:12;-6.10;99.90
11379;DHT22;5744;59.392;16.748;2022-12-07T05:52:40;-6.10;99.90
11379;DHT22;5744;59.392;16.748;2022-12-07T05:55:09;-6.10;99.90
11379;DHT22;5744;59.392;16.748;2022-12-07T05:57:37;-6.20;99.90
11379;DHT22;5744;59.392;16.748;2022-12-07T06:00:26;-6.20;99.90
11379;DHT22;5744;59.392;16.748;2022-12-07T06:02:52;-6.30;99.90
11379;DHT22;5744;59.392;16.748;2022-12-07T06:05:23;-6.30;99.90
11379;DHT22;5744;59.392;16.748;2022-12-07T06:07:51;-6.30;99.90
11379;DHT22;5744;59.392;16.748;2022-12-07T06:10:20;-6.30;99.90
11379;DHT22;5744;59.392;16.748;2022-12-07T06:12:48;-6.30;99.90
11379;DHT22;5744;59.392;16.748;2022-12-07T06:15:14;-6.30;99.90
11379;DHT22;5744;59.392;16.748;2022-12-07T06:17:43;-6.30;99.90
11379;DHT22;5744;59.392;16.748;2022-12-07T06:20:11;-6.30;99.90
11379;DHT22;5744;59.392;16.748;2022-12-07T06:22:42;-6.40;99.90
11379;DHT22;5744;59.392;16.748;2022-12-07T06:25:11;-6.40;99.90
11379;DHT22;5744;59.392;16.748;2022-12-07T06:27:39;-6.30;99.90
11379;DHT22;5744;59.392;16.748;2022-12-07T06:30:08;-6.20;99.90
11379;DHT22;5744;59.392;16.748;2022-12-07T06:32:37;-6.20;99.90
11379;DHT22;5744;59.392;16.748;2022-12-07T06:35:05;-6.20;99.90
11379;DHT22;5744;59.392;16.748;2022-12-07T06:37:34;-6.20;99.90
11379;DHT22;5744;59.392;16.748;2022-12-07T06:40:06;-6.20;99.90
11379;DHT22;5744;59.392;16.748;2022-12-07T06:42:34;-6.20;99.90
11379;DHT22;5744;59.392;16.748;2022-12-07T06:45:03;-6.20;99.90
11379;DHT22;5744;59.392;16.748;2022-12-07T06:47:32;-6.30;99.90
11379;DHT22;5744;59.392;16.748;2022-12-07T06:50:00;-6.30;99.90
11379;DHT22;5744;59.392;16.748;2022-12-07T06:52:30;-6.20;99.90
11379;DHT22;5744;59.392;16.748;2022-12-07T06:54:58;-6.20;99.90
11379;DHT22;5744;59.392;16.748;2022-12-07T06:57:29;-6.20;99.90
11379;DHT22;5744;59.392;16.748;2022-12-07T06:59:58;-6.20;99.90
11379;DHT22;5744;59.392;16.748;2022-12-07T07:02:26;-6.20;99.90
11379;DHT22;5744;59.392;16.748;2022-12-07T07:04:54;-6.20;99.90
11379;DHT22;5744;59.392;16.748;2022-12-07T07:07:23;-6.20;99.90
11379;DHT22;5744;59.392;16.748;2022-12-07T07:09:52;-6.20;99.90
11379;DHT22;5744;59.392;16.748;2022-12-07T07:12:20;-6.20;99.90
11379;DHT22;5744;59.392;16.748;2022-12-07T07:14:51;-6.20;99.90
11379;DHT22;5744;59.392;16.748;2022-12-07T07:17:20;-6.20;99.90
11379;DHT22;5744;59.392;16.748;2022-12-07T07:19:48;-6.10;99.90
11379;DHT22;5744;59.392;16.748;2022-12-07T07:22:17;-6.20;99.90
11379;DHT22;5744;59.392;16.748;2022-12-07T07:24:45;-6.20;99.90
11379;DHT22;5744;59.392;16.748;2022-12-07T07:27:14;-6.20;99.90
11379;DHT22;5744;59.392;16.748;2022-12-07T07:29:42;-6.30;99.90
11379;DHT22;5744;59.392;16.748;2022-12-07T07:32:13;-6.20;99.90
11379;DHT22;5744;59.392;16.748;2022-12-07T13:58:19;-3.10;99.90
11379;DHT22;5744;59.392;16.748;2022-12-07T14:00:47;-3.20;99.90
11379;DHT22;5744;59.392;16.748;2022-12-07T14:03:25;-3.30;99.90
11379;DHT22;5744;59.392;16.748;2022-12-07T14:06:11;-3.40;99.90
11379;DHT22;5744;59.392;16.748;2022-12-07T14:08:41;-3.30;99.90
11379;DHT22;5744;59.392;16.748;2022-12-07T14:11:12;-3.40;99.90
11379;DHT22;5744;59.392;16.748;2022-12-07T14:13:50;-3.50;99.90
11379;DHT22;5744;59.392;16.748;2022-12-07T14:16:22;-3.50;99.90
11379;DHT22;5744;59.392;16.748;2022-12-07T14:18:53;-3.60;99.90
11379;DHT22;5744;59.392;16.748;2022-12-07T14:21:22;-3.70;99.90
11379;DHT22;5744;59.392;16.748;2022-12-07T14:24:08;-3.80;99.90
11379;DHT22;5744;59.392;16.748;2022-12-07T14:26:37;-3.80;99.90
11379;DHT22;5744;59.392;16.748;2022-12-07T14:29:21;-3.80;99.90
11379;DHT22;5744;59.392;16.748;2022-12-07T14:31:50;-3.90;99.90
11379;DHT22;5744;59.392;16.748;2022-12-07T14:34:19;-3.90;99.90
11379;DHT22;5744;59.392;16.748;2022-12-07T14:36:48;-4.00;99.90
11379;DHT22;5744;59.392;16.748;2022-12-07T14:39:16;-4.00;99.90
11379;DHT22;5744;59.392;16.748;2022-12-07T14:41:45;-4.10;99.90
11379;DHT22;5744;59.392;16.748;2022-12-07T14:44:22;-4.10;99.90
11379;DHT22;5744;59.392;16.748;2022-12-07T14:46:51;-4.20;99.90
11379;DHT22;5744;59.392;16.748;2022-12-07T14:49:19;-4.30;99.90
11379;DHT22;5744;59.392;16.748;2022-12-07T14:51:48;-4.40;99.90
11379;DHT22;5744;59.392;16.748;2022-12-07T14:54:17;-4.40;99.90
11379;DHT22;5744;59.392;16.748;2022-12-07T14:56:46;-4.40;99.90
11379;DHT22;5744;59.392;16.748;2022-12-07T14:59:16;-4.50;99.90
11379;DHT22;5744;59.392;16.748;2022-12-07T15:01:47;-4.60;99.90
11379;DHT22;5744;59.392;16.748;2022-12-07T15:04:15;-4.60;99.90
11379;DHT22;5744;59.392;16.748;2022-12-07T15:06:54;-4.70;99.90
11379;DHT22;5744;59.392;16.748;2022-12-07T15:09:22;-4.70;99.90
11379;DHT22;5744;59.392;16.748;2022-12-07T15:11:51;-4.70;99.90
11379;DHT22;5744;59.392;16.748;2022-12-07T15:14:19;-4.80;99.90
11379;DHT22;5744;59.392;16.748;2022-12-07T15:16:50;-4.80;99.90
11379;DHT22;5744;59.392;16.748;2022-12-07T15:19:19;-4.90;99.90
11379;DHT22;5744;59.392;16.748;2022-12-07T15:21:49;-5.00;99.90
11379;DHT22;5744;59.392;16.748;2022-12-07T15:24:18;-5.00;99.90
11379;DHT22;5744;59.392;16.748;2022-12-07T15:26:48;-5.10;99.90
11379;DHT22;5744;59.392;16.748;2022-12-07T15:29:17;-5.10;99.90
11379;DHT22;5744;59.392;16.748;2022-12-07T15:31:50;-5.10;99.90
11379;DHT22;5744;59.392;16.748;2022-12-07T15:34:18;-5.20;99.90
11379;DHT22;5744;59.392;16.748;2022-12-07T15:36:47;-5.20;99.90
11379;DHT22;5744;59.392;16.748;2022-12-07T15:39:15;-5.20;99.90
11379;DHT22;5744;59.392;16.748;2022-12-07T15:41:44;-5.30;99.90
11379;DHT22;5744;59.392;16.748;2022-12-07T15:44:13;-5.30;99.90
11379;DHT22;5744;59.392;16.748;2022-12-07T15:46:56;-5.30;99.90
11379;DHT22;5744;59.392;16.748;2022-12-07T15:49:25;-5.40;99.90
11379;DHT22;5744;59.392;16.748;2022-12-07T15:51:53;-5.40;99.90
11379;DHT22;5744;59.392;16.748;2022-12-07T15:54:22;-5.40;99.90
11379;DHT22;5744;59.392;16.748;2022-12-07T15:56:51;-5.50;99.90
11379;DHT22;5744;59.392;16.748;2022-12-07T15:59:20;-5.50;99.90
11379;DHT22;5744;59.392;16.748;2022-12-07T16:01:48;-5.60;99.90
11379;DHT22;5744;59.392;16.748;2022-12-07T16:04:19;-5.60;99.90
11379;DHT22;5744;59.392;16.748;2022-12-07T16:06:48;-5.70;99.90
11379;DHT22;5744;59.392;16.748;2022-12-07T16:09:16;-5.70;99.90
11379;DHT22;5744;59.392;16.748;2022-12-07T16:11:45;-5.70;99.90
11379;DHT22;5744;59.392;16.748;2022-12-07T16:14:15;-5.70;99.90
11379;DHT22;5744;59.392;16.748;2022-12-07T16:16:44;-5.70;99.90
11379;DHT22;5744;59.392;16.748;2022-12-07T16:19:12;-5.80;99.90
11379;DHT22;5744;59.392;16.748;2022-12-07T16:21:43;-5.90;99.90
11379;DHT22;5744;59.392;16.748;2022-12-07T16:24:12;-5.90;99.90
11379;DHT22;5744;59.392;16.748;2022-12-07T16:26:41;-5.90;99.90
11379;DHT22;5744;59.392;16.748;2022-12-07T16:29:10;-6.00;99.90
11379;DHT22;5744;59.392;16.748;2022-12-07T16:31:39;-6.00;99.90
11379;DHT22;5744;59.392;16.748;2022-12-07T16:34:08;-6.00;99.90
11379;DHT22;5744;59.392;16.748;2022-12-07T16:36:37;-6.10;99.90
11379;DHT22;5744;59.392;16.748;2022-12-07T16:39:08;-6.20;99.90
11379;DHT22;5744;59.392;16.748;2022-12-07T16:41:37;-6.20;99.90
11379;DHT22;5744;59.392;16.748;2022-12-07T16:44:06;-6.20;99.90
11379;DHT22;5744;59.392;16.748;2022-12-07T16:46:35;-6.20;99.90
11379;DHT22;5744;59.392;16.748;2022-12-07T16:49:04;-6.30;99.90
11379;DHT22;5744;59.392;16.748;2022-12-07T16:51:32;-6.30;99.90
11379;DHT22;5744;59.392;16.748;2022-12-07T16:54:02;-6.30;99.90
11379;DHT22;5744;59.392;16.748;2022-12-07T16:56:33;-6.30;99.90
11379;DHT22;5744;59.392;16.748;2022-12-07T16:59:02;-6.40;99.90
11379;DHT22;5744;59.392;16.748;2022-12-07T17:01:30;-6.40;99.90
11379;DHT22;5744;59.392;16.748;2022-12-07T17:04:00;-6.40;99.90
11379;DHT22;5744;59.392;16.748;2022-12-07T17:06:29;-6.40;99.90
11379;DHT22;5744;59.392;16.748;2022-12-07T17:08:58;-6.40;99.90
11379;DHT22;5744;59.392;16.748;2022-12-07T17:11:27;-6.50;99.90
11379;DHT22;5744;59.392;16.748;2022-12-07T17:13:59;-6.50;99.90
11379;DHT22;5744;59.392;16.748;2022-12-07T17:16:54;-6.50;99.90
11379;DHT22;5744;59.392;16.748;2022-12-07T17:19:23;-6.60;99.90
11379;DHT22;5744;59.392;16.748;2022-12-07T17:21:51;-6.50;99.90
11379;DHT22;5744;59.392;16.748;2022-12-07T17:24:20;-6.60;99.90
11379;DHT22;5744;59.392;16.748;2022-12-07T17:26:48;-6.60;99.90
11379;DHT22;5744;59.392;16.748;2022-12-07T17:29:19;-6.60;99.90
11379;DHT22;5744;59.392;16.748;2022-12-07T17:31:48;-6.60;99.90
11379;DHT22;5744;59.392;16.748;2022-12-07T17:34:17;-6.60;99.90
11379;DHT22;5744;59.392;16.748;2022-12-07T17:36:46;-6.60;99.90
11379;DHT22;5744;59.392;16.748;2022-12-07T17:39:17;-6.70;99.90
11379;DHT22;5744;59.392;16.748;2022-12-07T17:41:46;-6.70;99.90
11379;DHT22;5744;59.392;16.748;2022-12-07T17:44:30;-6.70;99.90
11379;DHT22;5744;59.392;16.748;2022-12-07T17:46:59;-6.80;99.90
11379;DHT22;5744;59.392;16.748;2022-12-07T17:49:28;-6.80;99.90
11379;DHT22;5744;59.392;16.748;2022-12-07T17:51:57;-6.80;99.90
11379;DHT22;5744;59.392;16.748;2022-12-07T17:54:38;-6.80;99.90
11379;DHT22;5744;59.392;16.748;2022-12-07T17:57:06;-6.80;99.90
11379;DHT22;5744;59.392;16.748;2022-12-07T17:59:38;-6.80;99.90
11379;DHT22;5744;59.392;16.748;2022-12-07T18:02:08;-6.90;99.90
11379;DHT22;5744;59.392;16.748;2022-12-07T18:04:36;-6.90;99.90
11379;DHT22;5744;59.392;16.748;2022-12-07T18:07:06;-6.90;99.90
11379;DHT22;5744;59.392;16.748;2022-12-07T18:09:35;-6.90;99.90
11379;DHT22;5744;59.392;16.748;2022-12-07T18:12:04;-6.90;99.90
11379;DHT22;5744;59.392;16.748;2022-12-07T18:14:33;-6.90;99.90
11379;DHT22;5744;59.392;16.748;2022-12-07T18:17:04;-6.90;99.90
11379;DHT22;5744;59.392;16.748;2022-12-07T18:19:33;-6.90;99.90
11379;DHT22;5744;59.392;16.748;2022-12-07T18:22:02;-6.90;99.90
11379;DHT22;5744;59.392;16.748;2022-12-07T18:24:30;-6.90;99.90
11379;DHT22;5744;59.392;16.748;2022-12-07T18:26:59;-6.90;99.90
11379;DHT22;5744;59.392;16.748;2022-12-07T18:29:28;-6.90;99.90
11379;DHT22;5744;59.392;16.748;2022-12-07T18:31:56;-6.90;99.90
11379;DHT22;5744;59.392;16.748;2022-12-07T18:34:28;-6.90;99.90
11379;DHT22;5744;59.392;16.748;2022-12-07T18:36:57;-7.00;99.90
11379;DHT22;5744;59.392;16.748;2022-12-07T18:39:26;-6.90;99.90
11379;DHT22;5744;59.392;16.748;2022-12-07T18:41:54;-7.10;99.90
11379;DHT22;5744;59.392;16.748;2022-12-07T18:44:23;-7.10;99.90
11379;DHT22;5744;59.392;16.748;2022-12-07T18:46:52;-7.20;99.90
11379;DHT22;5744;59.392;16.748;2022-12-07T18:49:20;-7.30;99.90
11379;DHT22;5744;59.392;16.748;2022-12-07T18:51:51;-7.50;99.90
11379;DHT22;5744;59.392;16.748;2022-12-07T18:54:20;-7.50;99.90
11379;DHT22;5744;59.392;16.748;2022-12-07T18:56:48;-7.50;99.90
11379;DHT22;5744;59.392;16.748;2022-12-07T18:59:17;-7.50;99.90
11379;DHT22;5744;59.392;16.748;2022-12-07T19:01:57;-7.50;99.90
11379;DHT22;5744;59.392;16.748;2022-12-07T19:04:26;-7.50;99.90
11379;DHT22;5744;59.392;16.748;2022-12-07T19:06:57;-7.50;99.90
11379;DHT22;5744;59.392;16.748;2022-12-07T19:09:26;-7.40;99.90
11379;DHT22;5744;59.392;16.748;2022-12-07T19:11:54;-7.40;99.90
11379;DHT22;5744;59.392;16.748;2022-12-07T19:14:28;-7.50;99.90
11379;DHT22;5744;59.392;16.748;2022-12-07T19:16:57;-7.60;99.90
11379;DHT22;5744;59.392;16.748;2022-12-07T19:19:28;-7.60;99.90
11379;DHT22;5744;59.392;16.748;2022-12-07T19:21:59;-7.70;99.90
11379;DHT22;5744;59.392;16.748;2022-12-07T19:24:28;-7.70;99.90
11379;DHT22;5744;59.392;16.748;2022-12-07T19:26:57;-7.70;99.90
11379;DHT22;5744;59.392;16.748;2022-12-07T19:29:27;-7.70;99.90
11379;DHT22;5744;59.392;16.748;2022-12-07T19:31:55;-7.70;99.90
11379;DHT22;5744;59.392;16.748;2022-12-07T19:34:24;-7.70;99.90
11379;DHT22;5744;59.392;16.748;2022-12-07T19:36:52;-7.70;99.90
11379;DHT22;5744;59.392;16.748;2022-12-07T19:39:24;-7.70;99.90
11379;DHT22;5744;59.392;16.748;2022-12-07T19:41:52;-7.80;99.90
11379;DHT22;5744;59.392;16.748;2022-12-07T19:44:21;-7.80;99.90
11379;DHT22;5744;59.392;16.748;2022-12-07T19:46:51;-7.90;99.90
11379;DHT22;5744;59.392;16.748;2022-12-07T19:49:20;-7.90;99.90
11379;DHT22;5744;59.392;16.748;2022-12-07T19:51:49;-8.00;99.90
11379;DHT22;5744;59.392;16.748;2022-12-07T19:54:18;-8.00;99.90
11379;DHT22;5744;59.392;16.748;2022-12-07T19:56:50;-8.10;99.90
11379;DHT22;5744;59.392;16.748;2022-12-07T19:59:21;-8.10;99.90
11379;DHT22;5744;59.392;16.748;2022-12-07T20:01:50;-8.10;99.90
11379;DHT22;5744;59.392;16.748;2022-12-07T20:04:19;-8.10;99.90
11379;DHT22;5744;59.392;16.748;2022-12-07T20:06:49;-8.10;99.90
11379;DHT22;5744;59.392;16.748;2022-12-07T20:09:18;-8.10;99.90
11379;DHT22;5744;59.392;16.748;2022-12-07T20:11:49;-8.10;99.90
11379;DHT22;5744;59.392;16.748;2022-12-07T20:14:31;-8.00;99.90
11379;DHT22;5744;59.392;16.748;2022-12-07T20:16:59;-8.00;99.90
11379;DHT22;5744;59.392;16.748;2022-12-07T20:19:28;-8.00;99.90
11379;DHT22;5744;59.392;16.748;2022-12-07T20:21:56;-7.90;99.90
11379;DHT22;5744;59.392;16.748;2022-12-07T20:24:25;-7.90;99.90
11379;DHT22;5744;59.392;16.748;2022-12-07T20:26:56;-7.90;99.90
11379;DHT22;5744;59.392;16.748;2022-12-07T20:29:24;-7.90;99.90
11379;DHT22;5744;59.392;16.748;2022-12-07T20:31:53;-7.90;99.90
11379;DHT22;5744;59.392;16.748;2022-12-07T20:34:22;-7.90;99.90
11379;DHT22;5744;59.392;16.748;2022-12-07T20:36:51;-7.90;99.90
11379;DHT22;5744;59.392;16.748;2022-12-07T20:39:19;-8.00;99.90
11379;DHT22;5744;59.392;16.748;2022-12-07T20:41:48;-8.00;99.90
11379;DHT22;5744;59.392;16.748;2022-12-07T20:44:31;-7.90;99.90
11379;DHT22;5744;59.392;16.748;2022-12-07T20:47:00;-7.90;99.90
11379;DHT22;5744;59.392;16.748;2022-12-07T20:49:29;-8.00;99.90
11379;DHT22;5744;59.392;16.748;2022-12-07T20:51:57;-8.00;99.90
11379;DHT22;5744;59.392;16.748;2022-12-07T20:54:26;-8.00;99.90
11379;DHT22;5744;59.392;16.748;2022-12-07T20:56:54;-8.10;99.90
11379;DHT22;5744;59.392;16.748;2022-12-07T20:59:22;-8.10;99.90
